Detall de PIREP

Printer-friendly versionPDF version

[2014/02/02 10:24:00]
Flight IATA:CT2305
Pilot Number:012
Company ICAO:CAT
Aircraft Type:F70/A
PAX:66
Aircraft Registration:PFJ
Departing Airport: LIBC
Destination Airport: LIEA
Alternate Airport:LIEO
Online: VATSIM
Route:CDC/M075F280 UM729 PNZ/M075F270 UM603 MOROB
Flight Level:F280
No Slew and time accel
No pause
Crash detect
Detect pilot in Cockpit between each 30 and 45 minutes
10:24 Zero fuel Weight: 67952 Lbs, Fuel Weight: 13882 Lbs
10:24 VATSIM:LIBC 020950Z 11021KT 8000 SCT010 BKN030 12/11 Q1007
10:24 VATSIM:LIEA 020950Z 31008KT 280V340 9999 -RA FEW013 10/08 Q1009
10:24 VOICE CATALONIAN
10:29 Parking Brakes off
10:34 Take-off
10:34 Take off Weight: 81477 Lbs
10:34 Wind: 106º @ 028 Knots Heading: 163º
10:34 POS N38º 59´ 36´´ E017º 04´ 52´´
10:34 Gear Up: 147 Knots
10:34 Flaps:2 at 147 Knots
10:34 Flaps:1 at 165 Knots
10:34 Flaps:0 at 178 Knots
10:44 TOC
10:44 Fuel Weight: 12150 Lb
10:49 Wind:102º@025 Knots Heading: 311º Ground Speed: 457 Knots Altitude 27775 ft
11:04 Wind:157º@042 Knots Heading: 306º Ground Speed: 481 Knots Altitude 27765 ft
11:10 TOD
11:10 Fuel Weight: 9879 Lb
11:19 Wind:169º@043 Knots Heading: 260º Ground Speed: 448 Knots Altitude 26781 ft
11:34 Wind:198º@019 Knots Heading: 260º Ground Speed: 355 Knots Altitude 16640 ft
11:39 Flaps:1 at 229 Knots
11:41 Flaps:2 at 191 Knots
11:43 Gear Down: 177 Knots
11:46 Flaps:3 at 166 Knots
11:46 Flaps:4 at 157 Knots
11:47 TouchDown:Rate -231 ft/min Speed: 116 Knots
11:47 Flaps:2 at 59 Knots
11:47 VATSIM:LIEA 021050Z 32008KT 290V350 9999 SCT020 10/07 Q1009
11:47 Land
11:47 Wind:318º@007 Knots
11:47 Heading: 207º
11:47 Flight Duration: 01:13
11:47 Landing Weight: 75353 Lbs
11:47 POS N40º 37´ 59´´ E008º 17´ 29´´
11:50 Parking brakes on
11:50 Block toBlock Duration: 01:21
11:50 Final Fuel: 7299 Lbls
11:50 Spent Fuel: 6582 Lbls
11:50 Flight Length: 472 NM
11:50 TOD Land Length: 220 NM

Exportar CSV

Powered by Drupal - Modified by Danger4k